Time;durP1;ratioP1;P1;durP2;ratioP2;P2;SDS_P1;SDS_P2;PMS_P1;PMS_P2;Temp;Humidity;BMP_temperature;BMP_pressure;BME280_temperature;BME280_humidity;BME280_pressure;Samples;Min_cycle;Max_cycle;Signal;HPM_P1;HPM_P2
2024/03/24 00:02:40;;;;;;;13.68;3.33;;;;;;;;;;4957299;28;20742;-61
2024/03/24 00:05:26;;;;;;;13.95;3.17;;;;;;;;;;4963286;28;20523;-61
2024/03/24 00:08:19;;;;;;;22.55;3.53;;;;;;;;;;4964118;28;20063;-61
2024/03/24 00:11:12;;;;;;;20.33;3.20;;;;;;;;;;4952171;28;20062;-62
2024/03/24 00:14:04;;;;;;;15.75;3.45;;;;;;;;;;4957779;28;20066;-64
2024/03/24 00:16:58;;;;;;;;;;;;;;;;;;4974609;28;20461;-64
2024/03/24 00:19:30;;;;;;;15.93;3.33;;;;;;;;;;4984147;28;19929;-62
2024/03/24 00:21:57;;;;;;;19.27;3.47;;;;;;;;;;4976547;28;20577;-64
2024/03/24 00:24:30;;;;;;;18.60;3.10;;;;;;;;;;4979663;28;20073;-64
2024/03/24 00:26:56;;;;;;;16.27;3.25;;;;;;;;;;4979760;28;20065;-65
2024/03/24 00:29:29;;;;;;;26.25;3.88;;;;;;;;;;4980787;28;20599;-61
2024/03/24 00:31:55;;;;;;;16.95;2.97;;;;;;;;;;4979281;28;20054;-62
2024/03/24 00:34:21;;;;;;;11.68;2.70;;;;;;;;;;4973719;28;20069;-62
2024/03/24 00:37:14;;;;;;;20.75;4.07;;;;;;;;;;4978053;28;20062;-63
2024/03/24 00:40:00;;;;;;;20.55;3.10;;;;;;;;;;4978579;28;20069;-63
2024/03/24 00:42:53;;;;;;;14.88;2.78;;;;;;;;;;4978973;28;20108;-63
2024/03/24 00:45:39;;;;;;;17.08;3.30;;;;;;;;;;4980688;28;20062;-62
2024/03/24 00:48:32;;;;;;;22.48;3.25;;;;;;;;;;4977817;28;20055;-60
2024/03/24 00:51:18;;;;;;;20.58;3.22;;;;;;;;;;4975041;28;20058;-60
2024/03/24 00:54:11;;;;;;;12.38;2.33;;;;;;;;;;4982353;28;20058;-61
2024/03/24 00:57:04;;;;;;;15.95;3.67;;;;;;;;;;4978424;28;20066;-61
2024/03/24 00:59:50;;;;;;;12.55;2.33;;;;;;;;;;4977570;28;20058;-60
2024/03/24 01:02:40;;;;;;;10.27;3.05;;;;;;;;;;4980751;28;20065;-60
2024/03/24 01:05:06;;;;;;;19.75;3.60;;;;;;;;;;4983889;28;20054;-61
2024/03/24 01:07:32;;;;;;;13.15;2.90;;;;;;;;;;4978790;28;20074;-60
2024/03/24 01:10:05;;;;;;;10.07;2.50;;;;;;;;;;4974386;28;20523;-60
2024/03/24 01:12:31;;;;;;;13.00;3.35;;;;;;;;;;4978439;28;20416;-60
2024/03/24 01:15:24;;;;;;;13.48;3.30;;;;;;;;;;4979100;28;20072;-63
2024/03/24 01:18:23;;;;;;;13.60;3.15;;;;;;;;;;4964883;28;20062;-64
2024/03/24 01:21:16;;;;;;;11.15;2.45;;;;;;;;;;4961774;28;20108;-64
2024/03/24 01:24:03;;;;;;;13.10;2.95;;;;;;;;;;4961032;28;20051;-64
2024/03/24 01:26:55;;;;;;;12.55;2.38;;;;;;;;;;4961783;28;20058;-60
2024/03/24 01:29:41;;;;;;;12.70;2.60;;;;;;;;;;4963892;28;20575;-61
2024/03/24 01:32:34;;;;;;;12.77;2.80;;;;;;;;;;4966432;28;20523;-61
2024/03/24 01:35:20;;;;;;;7.43;2.45;;;;;;;;;;4963352;28;20527;-60
2024/03/24 01:38:13;;;;;;;11.20;2.80;;;;;;;;;;4964987;28;20057;-60
2024/03/24 01:40:59;;;;;;;13.35;2.80;;;;;;;;;;4962331;28;20543;-61
2024/03/24 01:43:52;;;;;;;11.50;2.20;;;;;;;;;;4960392;28;20077;-64
2024/03/24 01:46:38;;;;;;;12.70;2.85;;;;;;;;;;4955629;28;20066;-64
2024/03/24 01:49:31;;;;;;;15.52;2.97;;;;;;;;;;4956724;28;20059;-65
2024/03/24 01:52:24;;;;;;;13.70;2.40;;;;;;;;;;4957432;28;20058;-62
2024/03/24 01:55:11;;;;;;;13.05;2.72;;;;;;;;;;4960654;28;20054;-64
2024/03/24 01:58:03;;;;;;;11.98;2.60;;;;;;;;;;4960192;28;20066;-63
2024/03/24 02:00:49;;;;;;;8.10;2.63;;;;;;;;;;4954268;28;20519;-62
2024/03/24 02:03:42;;;;;;;10.05;3.10;;;;;;;;;;4968573;28;20059;-63
2024/03/24 02:06:28;;;;;;;12.52;2.53;;;;;;;;;;4958456;28;20054;-63
2024/03/24 02:09:21;;;;;;;12.57;2.58;;;;;;;;;;4956545;28;20055;-62
2024/03/24 02:12:14;;;;;;;13.40;2.75;;;;;;;;;;4958953;28;20054;-54
2024/03/24 02:15:00;;;;;;;16.40;3.30;;;;;;;;;;4959011;28;20066;-49
2024/03/24 02:17:59;;;;;;;8.02;2.22;;;;;;;;;;4975572;28;20329;-53
2024/03/24 02:20:46;;;;;;;11.32;2.92;;;;;;;;;;4977664;28;20050;-50
2024/03/24 02:23:39;;;;;;;16.50;2.85;;;;;;;;;;4979671;28;20153;-60
2024/03/24 02:26:25;;;;;;;10.43;3.17;;;;;;;;;;4982040;28;20534;-60
2024/03/24 02:29:18;;;;;;;10.65;2.80;;;;;;;;;;4976757;28;20057;-60
2024/03/24 02:32:04;;;;;;;15.32;3.33;;;;;;;;;;4982267;28;20163;-60
2024/03/24 02:34:57;;;;;;;10.88;2.90;;;;;;;;;;4978947;28;20058;-61
2024/03/24 02:37:50;;;;;;;9.38;2.65;;;;;;;;;;4977183;28;20054;-61
2024/03/24 02:40:43;;;;;;;9.55;2.67;;;;;;;;;;4985116;28;20057;-61
2024/03/24 02:43:29;;;;;;;9.32;2.55;;;;;;;;;;4979872;28;20050;-61
2024/03/24 02:46:22;;;;;;;14.90;2.40;;;;;;;;;;4982101;28;20061;-61
2024/03/24 02:49:08;;;;;;;10.25;2.42;;;;;;;;;;4980024;28;20054;-60
2024/03/24 02:52:01;;;;;;;13.13;2.20;;;;;;;;;;4981203;28;20062;-52
2024/03/24 02:54:47;;;;;;;8.95;2.55;;;;;;;;;;4983371;28;20478;-50
2024/03/24 02:57:40;;;;;;;12.38;2.92;;;;;;;;;;4995511;28;20058;-47
2024/03/24 03:00:27;;;;;;;7.82;2.53;;;;;;;;;;4979951;28;20121;-52
2024/03/24 03:03:19;;;;;;;7.50;2.15;;;;;;;;;;4978691;28;20078;-51
2024/03/24 03:06:05;;;;;;;3.75;1.88;;;;;;;;;;4982047;28;20059;-49
2024/03/24 03:08:58;;;;;;;10.75;2.38;;;;;;;;;;4978927;28;20062;-52
2024/03/24 03:11:44;;;;;;;9.73;2.63;;;;;;;;;;4979957;28;20087;-48
2024/03/24 03:14:37;;;;;;;6.43;1.90;;;;;;;;;;4986536;28;20072;-54
2024/03/24 03:17:29;;;;;;;5.15;1.80;;;;;;;;;;4977559;28;20074;-53
2024/03/24 03:20:29;;;;;;;3.67;1.52;;;;;;;;;;4984737;28;20062;-65
2024/03/24 03:23:15;;;;;;;6.88;1.95;;;;;;;;;;4979153;28;20065;-53
2024/03/24 03:26:09;;;;;;;9.40;1.90;;;;;;;;;;4983158;28;20061;-51
2024/03/24 03:28:55;;;;;;;4.80;1.40;;;;;;;;;;4979820;28;20058;-51
2024/03/24 03:31:48;;;;;;;3.55;1.30;;;;;;;;;;4994167;28;20051;-51
2024/03/24 03:34:34;;;;;;;6.05;1.60;;;;;;;;;;4975395;28;20062;-47
2024/03/24 03:37:27;;;;;;;5.55;1.27;;;;;;;;;;4979918;28;20127;-61
2024/03/24 03:40:13;;;;;;;4.68;1.50;;;;;;;;;;4976181;28;20508;-61
2024/03/24 03:43:06;;;;;;;4.30;1.63;;;;;;;;;;4981364;28;20514;-61
2024/03/24 03:45:52;;;;;;;3.30;1.35;;;;;;;;;;4979141;28;20062;-61
2024/03/24 03:48:48;;;;;;;3.53;1.55;;;;;;;;;;4994029;28;20069;-65
2024/03/24 03:51:37;;;;;;;4.10;1.48;;;;;;;;;;4978735;28;20396;-49
2024/03/24 03:54:31;;;;;;;4.07;1.42;;;;;;;;;;4978894;28;20058;-53
2024/03/24 03:57:23;;;;;;;4.63;1.20;;;;;;;;;;4979244;28;20069;-51
2024/03/24 04:00:12;;;;;;;0.98;0.88;;;;;;;;;;4979814;28;20054;-50
2024/03/24 04:03:05;;;;;;;1.67;0.80;;;;;;;;;;4994970;28;20127;-50
2024/03/24 04:05:51;;;;;;;1.10;0.68;;;;;;;;;;4983893;28;20424;-60
2024/03/24 04:08:44;;;;;;;3.85;1.17;;;;;;;;;;4982940;28;20625;-60
2024/03/24 04:11:30;;;;;;;2.50;1.20;;;;;;;;;;4979818;28;20061;-60
2024/03/24 04:14:23;;;;;;;1.50;0.75;;;;;;;;;;4982658;28;20404;-60
2024/03/24 04:17:23;;;;;;;0.88;0.60;;;;;;;;;;4981144;28;20062;-48
2024/03/24 04:20:15;;;;;;;1.05;0.70;;;;;;;;;;4979494;28;20057;-60
2024/03/24 04:23:08;;;;;;;0.68;0.45;;;;;;;;;;4980944;28;20050;-61
2024/03/24 04:25:54;;;;;;;0.52;0.50;;;;;;;;;;4976418;28;20054;-60
2024/03/24 04:28:47;;;;;;;1.00;0.60;;;;;;;;;;4975943;28;20054;-60
2024/03/24 04:31:33;;;;;;;2.38;0.47;;;;;;;;;;4982287;28;20420;-60
2024/03/24 04:34:26;;;;;;;1.02;0.60;;;;;;;;;;4981816;28;20070;-53
2024/03/24 04:37:12;;;;;;;0.75;0.50;;;;;;;;;;4973348;28;20064;-51
2024/03/24 04:40:08;;;;;;;1.25;0.70;;;;;;;;;;4973149;28;20073;-52
2024/03/24 04:42:54;;;;;;;1.48;0.60;;;;;;;;;;4981852;28;20057;-50
2024/03/24 04:45:47;;;;;;;0.60;0.60;;;;;;;;;;4978355;28;20061;-61
2024/03/24 04:48:33;;;;;;;0.68;0.50;;;;;;;;;;4977929;28;20104;-64
2024/03/24 04:51:26;;;;;;;2.53;0.70;;;;;;;;;;4978978;28;20973;-64
2024/03/24 04:54:12;;;;;;;1.63;0.73;;;;;;;;;;4979025;28;20116;-64
2024/03/24 04:57:05;;;;;;;0.40;0.40;;;;;;;;;;4980673;28;20057;-64
2024/03/24 04:59:58;;;;;;;0.50;0.43;;;;;;;;;;4985082;28;20692;-64
2024/03/24 05:02:51;;;;;;;1.70;0.60;;;;;;;;;;4984497;28;20057;-60
2024/03/24 05:05:38;;;;;;;1.20;0.80;;;;;;;;;;4980622;28;20091;-60
2024/03/24 05:08:33;;;;;;;2.65;0.80;;;;;;;;;;4980350;28;20065;-60
2024/03/24 05:11:17;;;;;;;0.65;0.65;;;;;;;;;;4976384;28;20432;-60
2024/03/24 05:14:10;;;;;;;1.08;0.63;;;;;;;;;;4975357;28;20050;-60
2024/03/24 05:17:03;;;;;;;1.67;0.60;;;;;;;;;;4976987;28;21654;-60
2024/03/24 05:20:03;;;;;;;2.83;0.93;;;;;;;;;;4978107;28;20057;-61
2024/03/24 05:22:49;;;;;;;1.52;0.88;;;;;;;;;;4979025;28;20084;-60
2024/03/24 05:25:42;;;;;;;0.90;0.68;;;;;;;;;;4980858;28;20064;-60
2024/03/24 05:28:28;;;;;;;2.35;0.57;;;;;;;;;;4976183;28;20439;-60
2024/03/24 05:31:21;;;;;;;2.20;0.65;;;;;;;;;;4978695;28;20065;-60
2024/03/24 05:34:14;;;;;;;1.38;0.90;;;;;;;;;;4976749;28;20076;-61
2024/03/24 05:37:07;;;;;;;1.52;0.88;;;;;;;;;;4992065;28;20046;-61
2024/03/24 05:39:53;;;;;;;1.25;0.90;;;;;;;;;;4980397;28;20058;-61
2024/03/24 05:42:46;;;;;;;4.28;0.80;;;;;;;;;;4980930;28;20080;-64
2024/03/24 05:45:35;;;;;;;2.50;0.75;;;;;;;;;;4975309;28;20058;-65
2024/03/24 05:48:28;;;;;;;1.30;0.85;;;;;;;;;;4974470;28;20066;-64
2024/03/24 05:51:14;;;;;;;3.42;1.25;;;;;;;;;;4975825;28;20511;-65
2024/03/24 05:54:07;;;;;;;2.40;1.10;;;;;;;;;;4979409;28;20054;-63
2024/03/24 05:57:00;;;;;;;1.95;1.00;;;;;;;;;;4985163;28;20711;-63
2024/03/24 05:59:46;;;;;;;1.92;1.00;;;;;;;;;;4978202;28;20076;-59
2024/03/24 06:02:39;;;;;;;5.13;1.27;;;;;;;;;;4978699;28;20061;-60
2024/03/24 06:05:25;;;;;;;7.75;1.50;;;;;;;;;;4978783;28;20061;-59
2024/03/24 06:08:18;;;;;;;3.00;1.30;;;;;;;;;;4979086;28;20057;-60
2024/03/24 06:11:05;;;;;;;4.18;1.10;;;;;;;;;;4978214;28;20073;-62
2024/03/24 06:13:57;;;;;;;3.38;1.38;;;;;;;;;;4976797;28;20058;-59
2024/03/24 06:16:50;;;;;;;1.85;1.20;;;;;;;;;;4976171;28;20567;-59
2024/03/24 06:19:50;;;;;;;5.20;1.02;;;;;;;;;;4982020;28;20065;-59
2024/03/24 06:22:36;;;;;;;3.15;1.35;;;;;;;;;;4979074;28;20055;-60
2024/03/24 06:25:32;;;;;;;2.35;1.40;;;;;;;;;;4977696;28;20054;-60
2024/03/24 06:28:19;;;;;;;5.47;1.55;;;;;;;;;;4977583;28;20054;-59
2024/03/24 06:31:11;;;;;;;3.92;1.30;;;;;;;;;;4975508;28;20124;-59
2024/03/24 06:33:59;;;;;;;2.90;1.42;;;;;;;;;;4977312;28;20050;-60
2024/03/24 06:36:50;;;;;;;5.22;1.58;;;;;;;;;;4981982;28;20065;-61
2024/03/24 06:39:36;;;;;;;7.85;1.40;;;;;;;;;;4978517;28;20939;-59
2024/03/24 06:42:29;;;;;;;3.15;1.60;;;;;;;;;;4979671;28;20146;-63
2024/03/24 06:45:28;;;;;;;4.97;1.85;;;;;;;;;;4998566;28;20042;-63
2024/03/24 06:48:15;;;;;;;1.80;1.40;;;;;;;;;;4981135;28;20062;-64
2024/03/24 06:51:01;;;;;;;6.95;1.42;;;;;;;;;;4975592;28;20524;-63
2024/03/24 06:53:54;;;;;;;5.72;1.50;;;;;;;;;;4974233;28;20066;-63
2024/03/24 06:56:40;;;;;;;5.40;1.60;;;;;;;;;;4976043;28;20504;-60
2024/03/24 06:59:33;;;;;;;4.47;1.60;;;;;;;;;;4982830;28;20065;-60
2024/03/24 07:02:19;;;;;;;2.88;1.52;;;;;;;;;;4981968;28;20062;-60
2024/03/24 07:05:12;;;;;;;3.47;1.70;;;;;;;;;;4996232;28;20065;-60
2024/03/24 07:07:58;;;;;;;5.60;1.38;;;;;;;;;;4978144;28;20424;-48
2024/03/24 07:10:52;;;;;;;3.25;1.80;;;;;;;;;;4979826;28;20054;-64
2024/03/24 07:13:37;;;;;;;4.38;1.80;;;;;;;;;;4983556;28;20062;-60
2024/03/24 07:16:30;;;;;;;2.45;1.30;;;;;;;;;;4975645;28;20865;-59
2024/03/24 07:19:23;;;;;;;7.95;1.80;;;;;;;;;;4977591;28;20061;-60
2024/03/24 07:22:16;;;;;;;6.43;1.85;;;;;;;;;;4982734;28;20062;-60
2024/03/24 07:25:02;;;;;;;3.38;1.80;;;;;;;;;;4978476;28;20069;-61
2024/03/24 07:27:55;;;;;;;4.50;1.20;;;;;;;;;;4984314;28;20906;-60
2024/03/24 07:30:41;;;;;;;3.85;1.50;;;;;;;;;;4981450;28;20066;-60
2024/03/24 07:33:34;;;;;;;5.90;1.55;;;;;;;;;;4983852;28;20097;-60
2024/03/24 07:36:20;;;;;;;4.28;1.30;;;;;;;;;;4980008;28;20062;-60
2024/03/24 07:39:13;;;;;;;5.03;1.40;;;;;;;;;;4983103;28;20066;-62
2024/03/24 07:41:59;;;;;;;2.40;1.25;;;;;;;;;;4982573;28;20065;-62
2024/03/24 07:44:52;;;;;;;3.22;1.38;;;;;;;;;;4997904;28;20562;-62
2024/03/24 07:47:38;;;;;;;3.58;1.95;;;;;;;;;;4982415;28;20076;-62
2024/03/24 07:50:31;;;;;;;5.93;1.67;;;;;;;;;;4977570;28;20061;-63
2024/03/24 07:53:17;;;;;;;7.43;1.52;;;;;;;;;;4979271;28;20054;-62
2024/03/24 07:56:10;;;;;;;3.42;1.50;;;;;;;;;;4974846;28;20064;-63
2024/03/24 07:58:36;;;;;;;3.38;1.45;;;;;;;;;;4982684;28;20054;-64
2024/03/24 08:01:02;;;;;;;6.85;1.60;;;;;;;;;;4980462;28;20518;-63
2024/03/24 08:03:35;;;;;;;4.82;1.42;;;;;;;;;;4984889;28;20062;-52
2024/03/24 08:06:01;;;;;;;2.70;1.33;;;;;;;;;;4983419;28;20054;-64
2024/03/24 08:08:34;;;;;;;3.05;1.33;;;;;;;;;;4976259;28;20050;-51
2024/03/24 08:11:00;;;;;;;4.35;1.35;;;;;;;;;;4981352;28;21823;-51
2024/03/24 08:13:26;;;;;;;2.00;1.60;;;;;;;;;;4980993;28;20079;-47
2024/03/24 08:15:59;;;;;;;2.08;1.48;;;;;;;;;;4980704;28;20058;-48
2024/03/24 08:18:25;;;;;;;1.90;1.13;;;;;;;;;;4982398;28;20149;-51
2024/03/24 08:20:58;;;;;;;5.70;1.67;;;;;;;;;;4975547;28;20073;-53
2024/03/24 08:23:24;;;;;;;5.72;1.55;;;;;;;;;;4978144;28;20128;-60
2024/03/24 08:26:19;;;;;;;2.88;1.38;;;;;;;;;;4979538;28;20095;-59
2024/03/24 08:29:12;;;;;;;4.40;1.45;;;;;;;;;;4977702;28;20055;-60
2024/03/24 08:32:05;;;;;;;4.72;1.52;;;;;;;;;;4977469;28;20058;-49
2024/03/24 08:34:51;;;;;;;5.57;2.15;;;;;;;;;;4977642;28;20065;-64
2024/03/24 08:37:48;;;;;;;4.25;1.63;;;;;;;;;;4980527;28;20065;-62
2024/03/24 08:40:30;;;;;;;6.10;1.95;;;;;;;;;;4977185;28;20136;-62
2024/03/24 08:43:23;;;;;;;4.70;1.35;;;;;;;;;;4980922;28;20069;-63
2024/03/24 08:46:09;;;;;;;3.20;1.40;;;;;;;;;;4979663;28;20076;-62
2024/03/24 08:49:02;;;;;;;5.70;1.38;;;;;;;;;;4976910;28;20054;-62
2024/03/24 08:51:50;;;;;;;4.85;1.50;;;;;;;;;;4978653;28;20073;-60
2024/03/24 08:54:41;;;;;;;6.32;1.52;;;;;;;;;;4982237;28;20054;-61
2024/03/24 08:57:27;;;;;;;5.07;2.03;;;;;;;;;;4979359;28;20077;-60
2024/03/24 09:00:20;;;;;;;3.60;1.35;;;;;;;;;;4980352;28;20062;-60
2024/03/24 09:03:06;;;;;;;12.18;2.88;;;;;;;;;;4978122;28;20050;-61
2024/03/24 09:05:59;;;;;;;7.82;1.63;;;;;;;;;;4979215;28;20520;-61
2024/03/24 09:08:45;;;;;;;8.27;2.67;;;;;;;;;;4975188;28;20057;-49
2024/03/24 09:11:38;;;;;;;8.43;1.67;;;;;;;;;;4979007;28;20428;-50
2024/03/24 09:14:24;;;;;;;6.68;1.80;;;;;;;;;;4976805;28;20062;-60
2024/03/24 09:17:24;;;;;;;2.67;1.40;;;;;;;;;;4973061;28;20985;-60
2024/03/24 09:20:17;;;;;;;3.13;1.80;;;;;;;;;;4956851;28;20050;-60
2024/03/24 09:23:09;;;;;;;4.57;1.70;;;;;;;;;;4970643;28;20081;-60
2024/03/24 09:26:00;;;;;;;4.95;1.70;;;;;;;;;;4959054;28;20054;-60
2024/03/24 09:28:53;;;;;;;3.78;1.85;;;;;;;;;;4958087;28;20783;-60
2024/03/24 09:31:39;;;;;;;7.90;2.05;;;;;;;;;;4957101;28;20560;-60
2024/03/24 09:34:32;;;;;;;4.82;2.10;;;;;;;;;;4957186;28;20416;-60
2024/03/24 09:37:18;;;;;;;5.72;1.73;;;;;;;;;;4955861;28;20114;-60
2024/03/24 09:40:11;;;;;;;7.60;2.55;;;;;;;;;;4958201;28;20511;-60
2024/03/24 09:43:11;;;;;;;8.70;2.38;;;;;;;;;;4959205;28;20110;-62
2024/03/24 09:46:04;;;;;;;4.22;1.90;;;;;;;;;;4960624;28;20525;-48
2024/03/24 09:48:53;;;;;;;5.40;1.70;;;;;;;;;;4959401;28;20051;-58
2024/03/24 09:51:46;;;;;;;4.82;2.13;;;;;;;;;;4958740;28;20093;-60
2024/03/24 09:54:30;;;;;;;8.00;3.28;;;;;;;;;;4959032;28;20091;-60
2024/03/24 09:57:25;;;;;;;9.50;3.13;;;;;;;;;;4962183;28;20373;-61
2024/03/24 10:00:11;;;;;;;4.82;2.75;;;;;;;;;;4957978;28;20472;-62
2024/03/24 10:03:05;;;;;;;5.53;2.65;;;;;;;;;;4956561;28;20519;-61
2024/03/24 10:05:59;;;;;;;7.10;2.80;;;;;;;;;;4957331;28;20505;-47
2024/03/24 10:08:46;;;;;;;7.63;3.60;;;;;;;;;;4960711;28;20059;-60
2024/03/24 10:11:38;;;;;;;6.53;3.45;;;;;;;;;;4954787;28;20058;-60
2024/03/24 10:14:25;;;;;;;11.25;3.90;;;;;;;;;;4957633;28;20539;-60
2024/03/24 10:17:30;;;;;;;7.63;3.55;;;;;;;;;;4960103;28;20058;-60
2024/03/24 10:20:23;;;;;;;14.73;3.92;;;;;;;;;;4977451;28;20104;-61
2024/03/24 10:23:16;;;;;;;11.52;3.92;;;;;;;;;;4977967;28;20061;-63
2024/03/24 10:26:02;;;;;;;9.48;3.58;;;;;;;;;;4974823;28;20069;-65
2024/03/24 10:28:56;;;;;;;9.32;3.03;;;;;;;;;;4975952;28;20050;-65
2024/03/24 10:31:50;;;;;;;9.88;3.45;;;;;;;;;;4977295;28;20062;-65
2024/03/24 10:34:42;;;;;;;6.70;3.45;;;;;;;;;;4980860;28;20470;-65
2024/03/24 10:37:28;;;;;;;7.03;3.05;;;;;;;;;;4976083;28;20054;-66
2024/03/24 10:40:22;;;;;;;8.20;3.53;;;;;;;;;;4978967;28;20058;-65
2024/03/24 10:43:09;;;;;;;5.53;3.22;;;;;;;;;;4976162;28;20054;-50
2024/03/24 10:46:00;;;;;;;8.30;3.53;;;;;;;;;;4977812;28;20050;-63
2024/03/24 10:48:50;;;;;;;6.95;3.50;;;;;;;;;;4973925;28;20050;-62
2024/03/24 10:51:44;;;;;;;8.95;3.03;;;;;;;;;;4982979;28;20068;-63
2024/03/24 10:54:30;;;;;;;7.05;3.10;;;;;;;;;;4978089;28;20062;-63
2024/03/24 10:57:26;;;;;;;7.00;2.97;;;;;;;;;;4977725;28;20066;-62
2024/03/24 11:00:13;;;;;;;6.93;3.30;;;;;;;;;;4978296;28;20065;-53
2024/03/24 11:03:07;;;;;;;6.90;3.25;;;;;;;;;;4991533;28;20413;-60
2024/03/24 11:05:52;;;;;;;6.68;3.10;;;;;;;;;;4979006;28;20073;-60
2024/03/24 11:08:45;;;;;;;4.90;2.42;;;;;;;;;;4978068;28;20058;-60
2024/03/24 11:11:39;;;;;;;6.13;3.17;;;;;;;;;;4982395;28;20062;-60
2024/03/24 11:14:25;;;;;;;5.18;2.58;;;;;;;;;;4977151;28;20113;-60
2024/03/24 11:17:31;;;;;;;5.80;2.78;;;;;;;;;;4977965;28;20058;-60
2024/03/24 11:20:24;;;;;;;7.70;3.92;;;;;;;;;;4963358;28;20069;-64
2024/03/24 11:23:21;;;;;;;9.27;3.53;;;;;;;;;;4962129;28;20054;-60
2024/03/24 11:26:26;;;;;;;12.18;3.97;;;;;;;;;;4959413;28;20484;-61
2024/03/24 11:29:37;;;;;;;9.00;4.80;;;;;;;;;;4961054;28;20508;-60
2024/03/24 11:32:43;;;;;;;11.27;4.68;;;;;;;;;;4959809;28;20058;-61
2024/03/24 11:35:37;;;;;;;7.68;3.47;;;;;;;;;;4961806;28;20590;-61
2024/03/24 11:38:23;;;;;;;5.18;3.13;;;;;;;;;;4961199;28;20058;-50
2024/03/24 11:41:16;;;;;;;10.13;3.63;;;;;;;;;;4960206;28;20496;-50
2024/03/24 11:44:03;;;;;;;6.82;3.05;;;;;;;;;;4957321;28;20055;-52
2024/03/24 11:47:06;;;;;;;6.72;3.55;;;;;;;;;;4958010;28;20062;-52
2024/03/24 11:49:59;;;;;;;4.95;3.08;;;;;;;;;;4957083;28;20065;-51
2024/03/24 11:52:47;;;;;;;5.55;2.70;;;;;;;;;;4958036;28;20531;-51
2024/03/24 11:55:40;;;;;;;7.43;2.67;;;;;;;;;;4964654;28;20105;-63
2024/03/24 11:58:27;;;;;;;5.30;2.17;;;;;;;;;;4958883;28;20051;-48
2024/03/24 12:01:00;;;;;;;5.40;2.30;;;;;;;;;;4957376;28;20465;-51
2024/03/24 12:03:47;;;;;;;2.30;1.52;;;;;;;;;;4960473;28;20057;-48
2024/03/24 12:06:41;;;;;;;2.28;1.52;;;;;;;;;;4957208;28;20062;-52
2024/03/24 12:09:28;;;;;;;2.95;1.50;;;;;;;;;;4959860;28;20053;-48
2024/03/24 12:12:23;;;;;;;3.17;1.80;;;;;;;;;;4959083;28;20054;-48
2024/03/24 12:15:09;;;;;;;5.38;2.00;;;;;;;;;;4957061;28;20066;-60
2024/03/24 12:18:05;;;;;;;4.03;1.50;;;;;;;;;;4956665;28;20059;-65
2024/03/24 12:20:45;;;;;;;2.30;1.45;;;;;;;;;;4958605;28;20072;-65
2024/03/24 12:23:11;;;;;;;2.05;1.45;;;;;;;;;;4961019;28;20062;-66
2024/03/24 12:25:43;;;;;;;3.83;1.38;;;;;;;;;;4961450;28;20054;-65
2024/03/24 12:28:17;;;;;;;2.83;1.70;;;;;;;;;;4958258;28;20528;-66
2024/03/24 12:30:50;;;;;;;1.90;1.38;;;;;;;;;;4963164;28;20054;-65
2024/03/24 12:33:23;;;;;;;2.33;1.30;;;;;;;;;;4962572;28;20062;-66
2024/03/24 12:35:50;;;;;;;1.75;1.13;;;;;;;;;;4961654;28;20066;-63
2024/03/24 12:38:17;;;;;;;2.50;1.60;;;;;;;;;;4962512;28;20069;-63
2024/03/24 12:40:54;;;;;;;1.98;1.08;;;;;;;;;;4960113;28;20057;-62
2024/03/24 12:43:23;;;;;;;6.82;1.25;;;;;;;;;;4960624;28;20073;-64
2024/03/24 12:46:02;;;;;;;3.05;1.30;;;;;;;;;;4958290;28;20058;-63
2024/03/24 12:48:35;;;;;;;1.15;0.98;;;;;;;;;;4959021;28;20073;-63
2024/03/24 12:51:08;;;;;;;0.80;0.80;;;;;;;;;;4957980;28;20424;-51
2024/03/24 12:53:37;;;;;;;1.17;0.65;;;;;;;;;;4959789;28;20058;-49
2024/03/24 12:56:12;;;;;;;0.98;0.73;;;;;;;;;;4957356;28;20058;-52
2024/03/24 12:58:40;;;;;;;0.75;0.75;;;;;;;;;;4958527;28;20578;-50
2024/03/24 13:01:14;;;;;;;1.13;1.02;;;;;;;;;;4976234;28;20065;-60
2024/03/24 13:03:41;;;;;;;0.70;0.65;;;;;;;;;;4092249;28;10001531;-61
2024/03/24 13:06:14;;;;;;;1.27;0.90;;;;;;;;;;4917927;29;20106;-60
2024/03/24 13:08:48;;;;;;;0.93;0.80;;;;;;;;;;4917314;29;20051;-61
2024/03/24 13:11:16;;;;;;;1.27;1.00;;;;;;;;;;4916730;29;20112;-63
2024/03/24 13:13:43;;;;;;;1.00;0.90;;;;;;;;;;4920723;29;21246;-62
2024/03/24 13:16:19;;;;;;;1.58;1.00;;;;;;;;;;4922956;29;20505;-62
2024/03/24 13:19:15;;;;;;;3.70;1.10;;;;;;;;;;4930396;28;20055;-62
2024/03/24 13:22:09;;;;;;;3.30;0.98;;;;;;;;;;4939853;28;20062;-65
2024/03/24 13:24:56;;;;;;;1.80;1.25;;;;;;;;;;4951811;28;20812;-65
2024/03/24 13:28:07;;;;;;;0.80;0.77;;;;;;;;;;4938111;28;20067;-65
2024/03/24 13:30:53;;;;;;;1.55;1.05;;;;;;;;;;4932548;28;20448;-66
2024/03/24 13:33:46;;;;;;;2.55;1.20;;;;;;;;;;4938009;28;20062;-66
2024/03/24 13:36:38;;;;;;;1.27;1.10;;;;;;;;;;4924995;28;20509;-65
2024/03/24 13:39:31;;;;;;;0.70;0.70;;;;;;;;;;4948675;28;20055;-65
2024/03/24 13:42:35;;;;;;;0.65;0.65;;;;;;;;;;4936464;28;20061;-65
2024/03/24 13:45:32;;;;;;;1.13;1.00;;;;;;;;;;4933809;28;20429;-65
2024/03/24 13:48:18;;;;;;;0.73;0.70;;;;;;;;;;4934819;28;20062;-62
2024/03/24 13:51:12;;;;;;;1.30;0.85;;;;;;;;;;4939453;28;20078;-61
2024/03/24 13:53:59;;;;;;;1.20;1.02;;;;;;;;;;4936750;28;20067;-61
2024/03/24 13:56:51;;;;;;;0.98;0.88;;;;;;;;;;4935975;28;20051;-61
2024/03/24 13:59:37;;;;;;;1.02;0.90;;;;;;;;;;4947069;28;20565;-61
2024/03/24 14:02:30;;;;;;;1.05;0.60;;;;;;;;;;4933392;28;20101;-61
2024/03/24 14:05:17;;;;;;;1.10;0.82;;;;;;;;;;4936915;28;21239;-61
2024/03/24 14:08:09;;;;;;;0.75;0.75;;;;;;;;;;4933604;28;20058;-61
2024/03/24 14:11:05;;;;;;;3.50;1.00;;;;;;;;;;4933791;28;20058;-61
2024/03/24 14:14:14;;;;;;;1.73;0.90;;;;;;;;;;4929644;28;20191;-61
2024/03/24 14:17:19;;;;;;;3.95;1.23;;;;;;;;;;4936387;28;20066;-60
2024/03/24 14:20:22;;;;;;;2.50;1.48;;;;;;;;;;4065869;28;10000955;-62
2024/03/24 14:23:32;;;;;;;3.78;2.22;;;;;;;;;;4918612;29;20051;-62
2024/03/24 14:26:25;;;;;;;16.75;7.20;;;;;;;;;;4914959;28;20345;-62
2024/03/24 14:29:12;;;;;;;12.73;6.30;;;;;;;;;;4935438;28;20133;-62
2024/03/24 14:32:05;;;;;;;13.93;6.88;;;;;;;;;;4924851;28;20706;-62
2024/03/24 14:34:51;;;;;;;21.45;11.25;;;;;;;;;;4923605;29;20059;-60
2024/03/24 14:37:56;;;;;;;9.63;5.88;;;;;;;;;;4925266;28;20063;-60
2024/03/24 14:41:01;;;;;;;9.60;5.75;;;;;;;;;;4923959;29;20140;-61
2024/03/24 14:44:08;;;;;;;4.22;2.33;;;;;;;;;;4920932;29;20433;-61
2024/03/24 14:47:22;;;;;;;2.92;2.00;;;;;;;;;;4923298;28;20075;-60
2024/03/24 14:50:15;;;;;;;;;;;;;;;;;;4927328;29;20078;-61
2024/03/24 14:53:01;;;;;;;1.90;1.60;;;;;;;;;;4920165;28;20766;-61
2024/03/24 14:55:54;;;;;;;4.28;1.90;;;;;;;;;;4926352;29;20081;-61
2024/03/24 14:58:40;;;;;;;2.20;1.90;;;;;;;;;;4924356;29;20489;-61
2024/03/24 15:01:33;;;;;;;2.38;1.60;;;;;;;;;;4922886;28;20067;-62
2024/03/24 15:04:19;;;;;;;1.27;1.17;;;;;;;;;;4921844;29;20060;-47
2024/03/24 15:07:12;;;;;;;1.15;0.93;;;;;;;;;;4923705;28;20054;-61
2024/03/24 15:09:59;;;;;;;1.25;1.10;;;;;;;;;;4921851;29;20074;-60
2024/03/24 15:12:51;;;;;;;0.88;0.80;;;;;;;;;;4920056;28;21096;-60
2024/03/24 15:15:17;;;;;;;1.08;0.90;;;;;;;;;;4927366;28;20055;-60
2024/03/24 15:17:44;;;;;;;0.88;0.80;;;;;;;;;;4926167;29;20063;-61
2024/03/24 15:20:23;;;;;;;2.33;1.00;;;;;;;;;;4942640;28;20882;-60
2024/03/24 15:22:50;;;;;;;1.20;1.05;;;;;;;;;;4941172;28;20136;-60
2024/03/24 15:25:23;;;;;;;1.67;1.15;;;;;;;;;;4941913;28;20548;-60
2024/03/24 15:27:49;;;;;;;3.78;0.88;;;;;;;;;;4939187;28;20062;-60
2024/03/24 15:30:16;;;;;;;1.55;0.90;;;;;;;;;;4940396;28;20062;-61
2024/03/24 15:32:49;;;;;;;5.25;1.10;;;;;;;;;;4929108;28;20509;-52
2024/03/24 15:35:15;;;;;;;0.70;0.70;;;;;;;;;;4954578;28;20094;-62
2024/03/24 15:37:48;;;;;;;1.00;0.90;;;;;;;;;;4962366;28;20425;-62
2024/03/24 15:40:14;;;;;;;2.78;1.25;;;;;;;;;;4938414;28;20079;-62
2024/03/24 15:42:47;;;;;;;1.95;1.00;;;;;;;;;;4956689;28;20505;-62
2024/03/24 15:45:13;;;;;;;2.00;1.00;;;;;;;;;;4933405;28;20051;-62
2024/03/24 15:47:40;;;;;;;1.47;1.07;;;;;;;;;;4940238;28;20051;-62
2024/03/24 15:50:13;;;;;;;2.97;1.23;;;;;;;;;;4941136;28;20055;-60
2024/03/24 15:52:40;;;;;;;2.65;1.05;;;;;;;;;;4960828;28;20054;-60
2024/03/24 15:55:06;;;;;;;1.67;1.00;;;;;;;;;;4957437;28;20047;-60
2024/03/24 15:58:02;;;;;;;1.15;0.90;;;;;;;;;;4942753;28;20059;-61
2024/03/24 16:00:36;;;;;;;2.70;1.13;;;;;;;;;;4947735;28;20082;-60
2024/03/24 16:03:09;;;;;;;1.63;0.93;;;;;;;;;;4946957;28;20075;-65
2024/03/24 16:05:35;;;;;;;1.20;0.90;;;;;;;;;;4958236;28;20050;-66
2024/03/24 16:08:08;;;;;;;0.95;0.75;;;;;;;;;;4938763;28;20062;-65
2024/03/24 16:10:53;;;;;;;1.55;1.02;;;;;;;;;;4938683;28;20050;-64
2024/03/24 16:13:34;;;;;;;1.15;0.98;;;;;;;;;;4939066;28;20074;-65
2024/03/24 16:16:06;;;;;;;1.13;0.90;;;;;;;;;;4941687;28;20047;-65
2024/03/24 16:18:39;;;;;;;1.47;1.13;;;;;;;;;;4941342;28;20068;-65
2024/03/24 16:21:24;;;;;;;1.15;0.93;;;;;;;;;;4954827;28;20306;-65
2024/03/24 16:23:50;;;;;;;1.20;1.00;;;;;;;;;;4951546;28;20055;-65
2024/03/24 16:26:25;;;;;;;1.05;0.93;;;;;;;;;;4943903;28;20875;-65
2024/03/24 16:28:55;;;;;;;2.20;1.10;;;;;;;;;;4944138;28;20465;-60
2024/03/24 16:31:22;;;;;;;1.00;0.90;;;;;;;;;;4937376;28;20074;-60
2024/03/24 16:33:55;;;;;;;0.80;0.70;;;;;;;;;;4947343;28;20062;-61
2024/03/24 16:36:22;;;;;;;0.80;0.70;;;;;;;;;;4946698;28;20059;-61
2024/03/24 16:38:48;;;;;;;0.60;0.60;;;;;;;;;;4940048;28;20528;-60